Aviation Digital Data Service (ADDS)

Output produced by METARs form (1420 UTC 22 April 2019)
found at http://www.aviationweather.gov/metar/data/
 
Forecast for: DNYO (YOLA , NG)
Text: TAF DNYO 220950Z 2212/2318 22007KT CAVOK
Forecast period: 1200 UTC 22 April 2019 to 1800 UTC 23 April 2019
Forecast type: FROM: standard forecast or significant change
Winds: from the SW (220 degrees) at 8 MPH (7 knots; 3.6 m/s)
Visibility: 6 or more miles 10+ km)
Ceiling: unknown
Clouds: missing
Weather: NSW  (no significant weather)
Text: TEMPO 2214/2220 SCT014 FEW022CB
Forecast period: 1400 to 2000 UTC 22 April 2019
Forecast type: TEMPORARY: The following changes expected for less than half the time period
Visibility: missing
Ceiling: at least 12,000 feet AGL
Clouds: scattered clouds at 1400 feet AGL
few clouds at 2200 feet AGL
Weather: no significant weather forecast for this period